Terminal Aerodrome Forecast
Issued by NWS Quad Cities IA IL

Home | Current Version | Previous Version | Text Only | Print | Product List | Glossary On
Versions: 1 2 3 4 5 6 7 8 9 10 11 12 13 14 15 16 17 18 19 20 21 22 23 24 25
890
FTUS43 KDVN 200612 CCA
TAFMLI
TAF COR
KMLI 200612Z 2006/2106 35005KT P6SM SKC
     FM200900 00000KT 6SM BR SKC
     FM201400 11005KT P6SM SCT250=

USA.gov is the U.S. government's official web portal to all federal, state and local government web resources and services.